sensor_id;sensor_type;location;lat;lon;timestamp;pressure;altitude;pressure_sealevel;temperature;humidity
23166;BME280;11751;42.700;24.170;2023-05-10T00:01:23;94266.91;;;10.11;nan
23166;BME280;11751;42.700;24.170;2023-05-10T00:03:49;94271.88;;;10.32;nan
23166;BME280;11751;42.700;24.170;2023-05-10T00:06:14;94266.47;;;10.34;nan
23166;BME280;11751;42.700;24.170;2023-05-10T00:08:39;94258.38;;;10.23;nan
23166;BME280;11751;42.700;24.170;2023-05-10T00:11:05;94267.19;;;10.27;nan
23166;BME280;11751;42.700;24.170;2023-05-10T00:13:31;94257.72;;;10.38;nan
23166;BME280;11751;42.700;24.170;2023-05-10T00:15:56;94266.28;;;10.32;nan
23166;BME280;11751;42.700;24.170;2023-05-10T00:18:22;94251.72;;;10.34;nan
23166;BME280;11751;42.700;24.170;2023-05-10T00:20:47;94257.91;;;10.32;nan
23166;BME280;11751;42.700;24.170;2023-05-10T00:23:14;94248.78;;;10.39;nan
23166;BME280;11751;42.700;24.170;2023-05-10T00:25:39;94256.97;;;10.37;nan
23166;BME280;11751;42.700;24.170;2023-05-10T00:28:04;94251.03;;;10.41;nan
23166;BME280;11751;42.700;24.170;2023-05-10T00:30:30;94250.66;;;10.44;nan
23166;BME280;11751;42.700;24.170;2023-05-10T00:32:55;94252.75;;;10.51;nan
23166;BME280;11751;42.700;24.170;2023-05-10T00:35:21;94248.84;;;10.54;nan
23166;BME280;11751;42.700;24.170;2023-05-10T00:37:47;94246.66;;;10.60;nan
23166;BME280;11751;42.700;24.170;2023-05-10T00:40:12;94242.19;;;10.65;nan
23166;BME280;11751;42.700;24.170;2023-05-10T00:42:38;94243.69;;;10.73;nan
23166;BME280;11751;42.700;24.170;2023-05-10T00:45:04;94240.56;;;10.77;nan
23166;BME280;11751;42.700;24.170;2023-05-10T00:47:29;94247.84;;;10.87;nan
23166;BME280;11751;42.700;24.170;2023-05-10T00:49:55;94244.50;;;10.81;nan
23166;BME280;11751;42.700;24.170;2023-05-10T00:52:21;94244.84;;;10.85;nan
23166;BME280;11751;42.700;24.170;2023-05-10T00:54:49;94241.06;;;10.68;nan
23166;BME280;11751;42.700;24.170;2023-05-10T00:57:15;94243.31;;;10.69;nan
23166;BME280;11751;42.700;24.170;2023-05-10T00:59:41;94254.19;;;10.80;nan
23166;BME280;11751;42.700;24.170;2023-05-10T01:02:06;94248.56;;;10.73;nan
23166;BME280;11751;42.700;24.170;2023-05-10T01:04:32;94255.50;;;10.79;nan
23166;BME280;11751;42.700;24.170;2023-05-10T01:06:58;94251.19;;;10.78;nan
23166;BME280;11751;42.700;24.170;2023-05-10T01:09:23;94253.78;;;10.76;nan
23166;BME280;11751;42.700;24.170;2023-05-10T01:11:51;94247.44;;;10.76;nan
23166;BME280;11751;42.700;24.170;2023-05-10T01:14:18;94250.78;;;10.67;nan
23166;BME280;11751;42.700;24.170;2023-05-10T01:16:46;94233.63;;;10.70;nan
23166;BME280;11751;42.700;24.170;2023-05-10T01:19:18;94238.09;;;10.73;nan
23166;BME280;11751;42.700;24.170;2023-05-10T01:21:51;94244.06;;;10.70;nan
23166;BME280;11751;42.700;24.170;2023-05-10T01:27:13;94246.31;;;10.71;nan
23166;BME280;11751;42.700;24.170;2023-05-10T01:30:22;94255.06;;;10.68;nan
23166;BME280;11751;42.700;24.170;2023-05-10T01:35:51;94245.72;;;10.65;nan
23166;BME280;11751;42.700;24.170;2023-05-10T01:38:27;94243.03;;;10.52;nan
23166;BME280;11751;42.700;24.170;2023-05-10T01:43:39;94243.38;;;10.41;nan
23166;BME280;11751;42.700;24.170;2023-05-10T01:46:12;94240.13;;;10.23;nan
23166;BME280;11751;42.700;24.170;2023-05-10T01:48:45;94246.50;;;10.30;nan
23166;BME280;11751;42.700;24.170;2023-05-10T01:51:14;94251.72;;;10.34;nan
23166;BME280;11751;42.700;24.170;2023-05-10T01:53:43;94255.78;;;10.25;nan
23166;BME280;11751;42.700;24.170;2023-05-10T01:56:11;94250.09;;;10.11;nan
23166;BME280;11751;42.700;24.170;2023-05-10T01:58:40;94251.09;;;9.93;nan
23166;BME280;11751;42.700;24.170;2023-05-10T02:01:09;94261.75;;;9.74;nan
23166;BME280;11751;42.700;24.170;2023-05-10T02:03:35;94263.59;;;9.71;nan
23166;BME280;11751;42.700;24.170;2023-05-10T02:06:03;94262.19;;;9.17;nan
23166;BME280;11751;42.700;24.170;2023-05-10T02:08:30;94265.81;;;8.91;nan
23166;BME280;11751;42.700;24.170;2023-05-10T02:10:57;94269.34;;;8.58;nan
23166;BME280;11751;42.700;24.170;2023-05-10T02:13:25;94270.91;;;8.34;nan
23166;BME280;11751;42.700;24.170;2023-05-10T02:15:52;94274.31;;;8.14;nan
23166;BME280;11751;42.700;24.170;2023-05-10T02:18:18;94274.72;;;7.79;nan
23166;BME280;11751;42.700;24.170;2023-05-10T02:20:47;94272.91;;;7.68;nan
23166;BME280;11751;42.700;24.170;2023-05-10T02:23:14;94262.72;;;7.71;nan
23166;BME280;11751;42.700;24.170;2023-05-10T02:25:43;94269.56;;;7.70;nan
23166;BME280;11751;42.700;24.170;2023-05-10T02:28:11;94262.50;;;7.56;nan
23166;BME280;11751;42.700;24.170;2023-05-10T02:30:37;94265.09;;;7.67;nan
23166;BME280;11751;42.700;24.170;2023-05-10T02:33:05;94271.94;;;7.66;nan
23166;BME280;11751;42.700;24.170;2023-05-10T02:35:31;94257.84;;;7.46;nan
23166;BME280;11751;42.700;24.170;2023-05-10T02:37:59;94262.44;;;7.30;nan
23166;BME280;11751;42.700;24.170;2023-05-10T02:40:25;94272.78;;;7.48;nan
23166;BME280;11751;42.700;24.170;2023-05-10T02:42:54;94266.31;;;7.40;nan
23166;BME280;11751;42.700;24.170;2023-05-10T02:45:24;94265.44;;;7.32;nan
23166;BME280;11751;42.700;24.170;2023-05-10T02:47:52;94268.06;;;7.56;nan
23166;BME280;11751;42.700;24.170;2023-05-10T02:50:18;94275.38;;;7.72;nan
23166;BME280;11751;42.700;24.170;2023-05-10T02:52:50;94273.25;;;7.78;nan
23166;BME280;11751;42.700;24.170;2023-05-10T02:55:19;94281.38;;;7.76;nan
23166;BME280;11751;42.700;24.170;2023-05-10T02:57:51;94277.94;;;7.70;nan
23166;BME280;11751;42.700;24.170;2023-05-10T03:00:17;94285.47;;;7.75;nan
23166;BME280;11751;42.700;24.170;2023-05-10T03:02:43;94287.69;;;7.76;nan
23166;BME280;11751;42.700;24.170;2023-05-10T03:05:08;94292.53;;;7.76;nan
23166;BME280;11751;42.700;24.170;2023-05-10T03:07:34;94299.41;;;7.88;nan
23166;BME280;11751;42.700;24.170;2023-05-10T03:09:59;94293.19;;;7.95;nan
23166;BME280;11751;42.700;24.170;2023-05-10T03:17:59;94295.78;;;8.19;nan
23166;BME280;11751;42.700;24.170;2023-05-10T03:20:35;94292.16;;;8.24;nan
23166;BME280;11751;42.700;24.170;2023-05-10T03:23:12;94288.16;;;8.32;nan
23166;BME280;11751;42.700;24.170;2023-05-10T03:25:39;94294.72;;;8.35;nan
23166;BME280;11751;42.700;24.170;2023-05-10T03:28:06;94299.09;;;8.43;nan
23166;BME280;11751;42.700;24.170;2023-05-10T03:30:32;94296.97;;;8.49;nan
23166;BME280;11751;42.700;24.170;2023-05-10T03:33:04;94301.97;;;8.63;nan
23166;BME280;11751;42.700;24.170;2023-05-10T03:35:30;94307.34;;;8.74;nan
23166;BME280;11751;42.700;24.170;2023-05-10T03:37:55;94295.22;;;8.59;nan
23166;BME280;11751;42.700;24.170;2023-05-10T03:40:20;94302.09;;;8.45;nan
23166;BME280;11751;42.700;24.170;2023-05-10T03:42:46;94306.47;;;8.66;nan
23166;BME280;11751;42.700;24.170;2023-05-10T03:45:11;94303.25;;;8.75;nan
23166;BME280;11751;42.700;24.170;2023-05-10T03:47:36;94306.69;;;8.68;nan
23166;BME280;11751;42.700;24.170;2023-05-10T03:50:02;94307.66;;;8.71;nan
23166;BME280;11751;42.700;24.170;2023-05-10T03:52:28;94311.06;;;8.77;nan
23166;BME280;11751;42.700;24.170;2023-05-10T03:54:53;94311.19;;;8.84;nan
23166;BME280;11751;42.700;24.170;2023-05-10T03:57:18;94304.50;;;8.87;nan
23166;BME280;11751;42.700;24.170;2023-05-10T03:59:44;94300.84;;;8.92;nan
23166;BME280;11751;42.700;24.170;2023-05-10T04:02:10;94303.16;;;9.01;nan
23166;BME280;11751;42.700;24.170;2023-05-10T04:04:35;94299.09;;;9.02;nan
23166;BME280;11751;42.700;24.170;2023-05-10T04:07:01;94303.16;;;9.01;nan
23166;BME280;11751;42.700;24.170;2023-05-10T04:09:26;94304.25;;;8.98;nan
23166;BME280;11751;42.700;24.170;2023-05-10T04:11:52;94305.75;;;8.99;nan
23166;BME280;11751;42.700;24.170;2023-05-10T04:14:17;94308.31;;;8.97;nan
23166;BME280;11751;42.700;24.170;2023-05-10T04:16:43;94309.94;;;9.06;nan
23166;BME280;11751;42.700;24.170;2023-05-10T04:19:08;94298.97;;;9.08;nan
23166;BME280;11751;42.700;24.170;2023-05-10T04:21:33;94298.88;;;9.00;nan
23166;BME280;11751;42.700;24.170;2023-05-10T04:23:59;94295.75;;;9.04;nan
23166;BME280;11751;42.700;24.170;2023-05-10T04:26:24;94301.75;;;9.08;nan
23166;BME280;11751;42.700;24.170;2023-05-10T04:28:50;94305.06;;;9.06;nan
23166;BME280;11751;42.700;24.170;2023-05-10T04:31:16;94300.41;;;9.22;nan
23166;BME280;11751;42.700;24.170;2023-05-10T04:33:42;94307.16;;;9.26;nan
23166;BME280;11751;42.700;24.170;2023-05-10T04:36:07;94305.03;;;9.19;nan
23166;BME280;11751;42.700;24.170;2023-05-10T04:38:35;94299.66;;;9.21;nan
23166;BME280;11751;42.700;24.170;2023-05-10T04:41:08;94296.66;;;9.19;nan
23166;BME280;11751;42.700;24.170;2023-05-10T04:43:33;94304.56;;;9.28;nan
23166;BME280;11751;42.700;24.170;2023-05-10T04:45:59;94290.81;;;9.30;nan
23166;BME280;11751;42.700;24.170;2023-05-10T04:48:25;94297.22;;;9.38;nan
23166;BME280;11751;42.700;24.170;2023-05-10T04:50:50;94290.75;;;9.43;nan
23166;BME280;11751;42.700;24.170;2023-05-10T04:53:16;94302.41;;;9.34;nan
23166;BME280;11751;42.700;24.170;2023-05-10T04:55:41;94296.47;;;9.37;nan
23166;BME280;11751;42.700;24.170;2023-05-10T04:58:07;94299.28;;;9.37;nan
23166;BME280;11751;42.700;24.170;2023-05-10T05:00:33;94298.97;;;9.28;nan
23166;BME280;11751;42.700;24.170;2023-05-10T05:02:59;94307.53;;;9.43;nan
23166;BME280;11751;42.700;24.170;2023-05-10T05:05:24;94301.31;;;9.37;nan
23166;BME280;11751;42.700;24.170;2023-05-10T05:07:50;94313.41;;;9.19;nan
23166;BME280;11751;42.700;24.170;2023-05-10T05:10:15;94306.84;;;9.30;nan
23166;BME280;11751;42.700;24.170;2023-05-10T05:12:41;94310.97;;;9.36;nan
23166;BME280;11751;42.700;24.170;2023-05-10T05:15:07;94310.72;;;9.47;nan
23166;BME280;11751;42.700;24.170;2023-05-10T05:17:34;94307.22;;;9.33;nan
23166;BME280;11751;42.700;24.170;2023-05-10T05:19:59;94303.16;;;9.01;nan
23166;BME280;11751;42.700;24.170;2023-05-10T05:22:25;94304.47;;;9.21;nan
23166;BME280;11751;42.700;24.170;2023-05-10T05:24:56;94313.19;;;9.17;nan
23166;BME280;11751;42.700;24.170;2023-05-10T05:27:23;94292.66;;;9.28;nan
23166;BME280;11751;42.700;24.170;2023-05-10T05:29:55;94308.44;;;9.25;nan
23166;BME280;11751;42.700;24.170;2023-05-10T05:32:20;94307.56;;;9.30;nan
23166;BME280;11751;42.700;24.170;2023-05-10T05:34:46;94310.84;;;9.21;nan
23166;BME280;11751;42.700;24.170;2023-05-10T05:37:18;94311.13;;;9.51;nan
23166;BME280;11751;42.700;24.170;2023-05-10T05:39:44;94312.47;;;9.37;nan
23166;BME280;11751;42.700;24.170;2023-05-10T05:42:11;94315.66;;;9.54;nan
23166;BME280;11751;42.700;24.170;2023-05-10T05:44:36;94322.53;;;9.53;nan
23166;BME280;11751;42.700;24.170;2023-05-10T05:47:02;94323.25;;;9.33;nan
23166;BME280;11751;42.700;24.170;2023-05-10T05:49:27;94333.28;;;9.29;nan
23166;BME280;11751;42.700;24.170;2023-05-10T05:51:53;94331.69;;;9.20;nan
23166;BME280;11751;42.700;24.170;2023-05-10T05:54:18;94338.09;;;9.28;nan
23166;BME280;11751;42.700;24.170;2023-05-10T05:56:44;94328.78;;;9.46;nan
23166;BME280;11751;42.700;24.170;2023-05-10T05:59:10;94327.91;;;9.51;nan
23166;BME280;11751;42.700;24.170;2023-05-10T06:01:35;94331.56;;;9.46;nan
23166;BME280;11751;42.700;24.170;2023-05-10T06:04:01;94334.50;;;9.40;nan
23166;BME280;11751;42.700;24.170;2023-05-10T06:06:26;94339.00;;;9.43;nan
23166;BME280;11751;42.700;24.170;2023-05-10T06:08:52;94339.69;;;9.36;nan
23166;BME280;11751;42.700;24.170;2023-05-10T06:11:17;94340.50;;;9.44;nan
23166;BME280;11751;42.700;24.170;2023-05-10T06:13:43;94332.25;;;9.39;nan
23166;BME280;11751;42.700;24.170;2023-05-10T06:16:08;94338.81;;;9.62;nan
23166;BME280;11751;42.700;24.170;2023-05-10T06:18:33;94342.00;;;9.66;nan
23166;BME280;11751;42.700;24.170;2023-05-10T06:20:59;94333.22;;;9.62;nan
23166;BME280;11751;42.700;24.170;2023-05-10T06:23:25;94338.13;;;9.69;nan
23166;BME280;11751;42.700;24.170;2023-05-10T06:25:51;94349.31;;;9.69;nan
23166;BME280;11751;42.700;24.170;2023-05-10T06:28:17;94348.50;;;9.61;nan
23166;BME280;11751;42.700;24.170;2023-05-10T06:30:42;94347.00;;;9.60;nan
23166;BME280;11751;42.700;24.170;2023-05-10T06:33:08;94346.53;;;9.69;nan
23166;BME280;11751;42.700;24.170;2023-05-10T06:35:33;94340.50;;;9.65;nan
23166;BME280;11751;42.700;24.170;2023-05-10T06:37:59;94338.81;;;9.62;nan
23166;BME280;11751;42.700;24.170;2023-05-10T06:40:24;94344.94;;;9.60;nan
23166;BME280;11751;42.700;24.170;2023-05-10T06:42:50;94328.78;;;9.46;nan
23166;BME280;11751;42.700;24.170;2023-05-10T06:45:16;94338.00;;;9.54;nan
23166;BME280;11751;42.700;24.170;2023-05-10T06:47:42;94341.00;;;9.76;nan
23166;BME280;11751;42.700;24.170;2023-05-10T06:50:08;94338.63;;;9.60;nan
23166;BME280;11751;42.700;24.170;2023-05-10T06:52:33;94335.13;;;9.67;nan
23166;BME280;11751;42.700;24.170;2023-05-10T06:54:59;94341.53;;;9.75;nan
23166;BME280;11751;42.700;24.170;2023-05-10T06:57:25;94335.66;;;9.86;nan
23166;BME280;11751;42.700;24.170;2023-05-10T06:59:51;94333.50;;;10.12;nan
23166;BME280;11751;42.700;24.170;2023-05-10T07:02:17;94333.84;;;10.09;nan
23166;BME280;11751;42.700;24.170;2023-05-10T07:04:43;94343.47;;;9.80;nan
23166;BME280;11751;42.700;24.170;2023-05-10T07:07:08;94335.47;;;10.04;nan
23166;BME280;11751;42.700;24.170;2023-05-10T07:09:34;94330.84;;;10.07;nan
23166;BME280;11751;42.700;24.170;2023-05-10T07:11:59;94329.59;;;10.15;nan
23166;BME280;11751;42.700;24.170;2023-05-10T07:14:24;94335.06;;;10.21;nan
23166;BME280;11751;42.700;24.170;2023-05-10T07:16:50;94326.06;;;10.42;nan
23166;BME280;11751;42.700;24.170;2023-05-10T07:19:15;94331.34;;;10.53;nan
23166;BME280;11751;42.700;24.170;2023-05-10T07:21:41;94320.94;;;10.61;nan
23166;BME280;11751;42.700;24.170;2023-05-10T07:24:08;94335.00;;;10.76;nan
23166;BME280;11751;42.700;24.170;2023-05-10T07:26:33;94335.41;;;10.80;nan
23166;BME280;11751;42.700;24.170;2023-05-10T07:28:59;94324.38;;;10.82;nan
23166;BME280;11751;42.700;24.170;2023-05-10T07:31:24;94336.06;;;11.01;nan
23166;BME280;11751;42.700;24.170;2023-05-10T07:33:50;94336.13;;;11.16;nan
23166;BME280;11751;42.700;24.170;2023-05-10T07:36:15;94333.88;;;11.22;nan
23166;BME280;11751;42.700;24.170;2023-05-10T07:38:40;94335.78;;;11.27;nan
23166;BME280;11751;42.700;24.170;2023-05-10T07:41:06;94332.97;;;11.27;nan
23166;BME280;11751;42.700;24.170;2023-05-10T07:43:31;94344.34;;;11.14;nan
23166;BME280;11751;42.700;24.170;2023-05-10T07:45:56;94332.75;;;11.10;nan
23166;BME280;11751;42.700;24.170;2023-05-10T07:48:23;94336.91;;;11.24;nan
23166;BME280;11751;42.700;24.170;2023-05-10T07:50:48;94333.53;;;11.18;nan
23166;BME280;11751;42.700;24.170;2023-05-10T07:53:13;94343.50;;;11.41;nan
23166;BME280;11751;42.700;24.170;2023-05-10T07:55:39;94343.69;;;11.51;nan
23166;BME280;11751;42.700;24.170;2023-05-10T07:58:05;94350.47;;;11.63;nan
23166;BME280;11751;42.700;24.170;2023-05-10T08:00:30;94333.66;;;11.63;nan
23166;BME280;11751;42.700;24.170;2023-05-10T08:02:55;94347.81;;;11.50;nan
23166;BME280;11751;42.700;24.170;2023-05-10T08:05:21;94342.66;;;11.84;nan
23166;BME280;11751;42.700;24.170;2023-05-10T08:07:46;94334.63;;;11.88;nan
23166;BME280;11751;42.700;24.170;2023-05-10T08:10:12;94342.69;;;12.13;nan
23166;BME280;11751;42.700;24.170;2023-05-10T08:12:37;94348.66;;;12.32;nan
23166;BME280;11751;42.700;24.170;2023-05-10T08:15:03;94346.81;;;12.27;nan
23166;BME280;11751;42.700;24.170;2023-05-10T08:17:29;94351.66;;;12.34;nan
23166;BME280;11751;42.700;24.170;2023-05-10T08:19:54;94353.16;;;12.35;nan
23166;BME280;11751;42.700;24.170;2023-05-10T08:22:20;94363.66;;;12.27;nan
23166;BME280;11751;42.700;24.170;2023-05-10T08:24:48;94356.16;;;12.15;nan
23166;BME280;11751;42.700;24.170;2023-05-10T08:27:14;94361.78;;;12.00;nan
23166;BME280;11751;42.700;24.170;2023-05-10T08:29:39;94352.59;;;12.14;nan
23166;BME280;11751;42.700;24.170;2023-05-10T08:32:04;94349.78;;;11.85;nan
23166;BME280;11751;42.700;24.170;2023-05-10T08:34:30;94343.41;;;11.92;nan
23166;BME280;11751;42.700;24.170;2023-05-10T08:36:56;94348.13;;;12.26;nan
23166;BME280;11751;42.700;24.170;2023-05-10T08:39:21;94344.75;;;12.35;nan
23166;BME280;11751;42.700;24.170;2023-05-10T08:41:51;94344.94;;;12.37;nan
23166;BME280;11751;42.700;24.170;2023-05-10T08:44:16;94347.16;;;12.46;nan
23166;BME280;11751;42.700;24.170;2023-05-10T08:46:46;94344.47;;;12.78;nan
23166;BME280;11751;42.700;24.170;2023-05-10T08:49:13;94342.41;;;12.86;nan
23166;BME280;11751;42.700;24.170;2023-05-10T08:51:44;94347.13;;;12.76;nan
23166;BME280;11751;42.700;24.170;2023-05-10T08:54:12;94349.00;;;12.66;nan
23166;BME280;11751;42.700;24.170;2023-05-10T08:56:38;94349.38;;;12.70;nan
23166;BME280;11751;42.700;24.170;2023-05-10T08:59:03;94341.09;;;12.87;nan
23166;BME280;11751;42.700;24.170;2023-05-10T09:01:31;94339.97;;;12.90;nan
23166;BME280;11751;42.700;24.170;2023-05-10T09:03:57;94335.06;;;12.98;nan
23166;BME280;11751;42.700;24.170;2023-05-10T09:06:23;94334.53;;;12.99;nan
23166;BME280;11751;42.700;24.170;2023-05-10T09:08:49;94333.59;;;12.82;nan
23166;BME280;11751;42.700;24.170;2023-05-10T09:11:16;94328.78;;;12.68;nan
23166;BME280;11751;42.700;24.170;2023-05-10T09:13:42;94332.94;;;12.44;nan
23166;BME280;11751;42.700;24.170;2023-05-10T09:16:08;94340.78;;;12.46;nan
23166;BME280;11751;42.700;24.170;2023-05-10T09:18:34;94334.41;;;12.60;nan
23166;BME280;11751;42.700;24.170;2023-05-10T09:20:59;94332.50;;;12.70;nan
23166;BME280;11751;42.700;24.170;2023-05-10T09:23:25;94326.88;;;12.70;nan
23166;BME280;11751;42.700;24.170;2023-05-10T09:26:06;94335.47;;;12.87;nan
23166;BME280;11751;42.700;24.170;2023-05-10T09:28:53;94336.78;;;12.86;nan
23166;BME280;11751;42.700;24.170;2023-05-10T09:31:19;94328.63;;;13.20;nan
23166;BME280;11751;42.700;24.170;2023-05-10T09:33:46;94327.16;;;13.51;nan
23166;BME280;11751;42.700;24.170;2023-05-10T09:36:12;94335.38;;;13.64;nan
23166;BME280;11751;42.700;24.170;2023-05-10T09:38:48;94330.94;;;13.77;nan
23166;BME280;11751;42.700;24.170;2023-05-10T09:41:23;94332.88;;;13.67;nan
23166;BME280;11751;42.700;24.170;2023-05-10T09:43:48;94331.31;;;13.50;nan
23166;BME280;11751;42.700;24.170;2023-05-10T09:46:17;94318.88;;;13.21;nan
23166;BME280;11751;42.700;24.170;2023-05-10T09:48:44;94320.84;;;13.43;nan
23166;BME280;11751;42.700;24.170;2023-05-10T09:51:10;94325.75;;;13.66;nan
23166;BME280;11751;42.700;24.170;2023-05-10T09:53:43;94310.47;;;13.84;nan
23166;BME280;11751;42.700;24.170;2023-05-10T09:56:08;94316.09;;;13.84;nan
23166;BME280;11751;42.700;24.170;2023-05-10T09:58:36;94310.44;;;13.60;nan
23166;BME280;11751;42.700;24.170;2023-05-10T10:01:03;94310.44;;;13.60;nan
23166;BME280;11751;42.700;24.170;2023-05-10T10:03:29;94315.72;;;13.80;nan
23166;BME280;11751;42.700;24.170;2023-05-10T10:05:55;94308.59;;;13.79;nan
23166;BME280;11751;42.700;24.170;2023-05-10T10:08:21;94307.56;;;13.92;nan
23166;BME280;11751;42.700;24.170;2023-05-10T10:10:47;94308.25;;;13.75;nan
23166;BME280;11751;42.700;24.170;2023-05-10T10:13:13;94294.31;;;14.09;nan
23166;BME280;11751;42.700;24.170;2023-05-10T10:15:40;94294.44;;;14.43;nan
23166;BME280;11751;42.700;24.170;2023-05-10T10:18:07;94299.97;;;14.51;nan
23166;BME280;11751;42.700;24.170;2023-05-10T10:20:37;94301.03;;;14.38;nan
23166;BME280;11751;42.700;24.170;2023-05-10T10:23:02;94296.94;;;14.07;nan
23166;BME280;11751;42.700;24.170;2023-05-10T10:25:28;94304.56;;;14.22;nan
23166;BME280;11751;42.700;24.170;2023-05-10T10:35:13;94302.50;;;13.66;nan
23166;BME280;11751;42.700;24.170;2023-05-10T10:37:45;94312.63;;;13.69;nan
23166;BME280;11751;42.700;24.170;2023-05-10T10:42:52;94300.53;;;13.83;nan
23166;BME280;11751;42.700;24.170;2023-05-10T10:45:19;94299.56;;;13.57;nan
23166;BME280;11751;42.700;24.170;2023-05-10T10:47:45;94305.50;;;13.68;nan
23166;BME280;11751;42.700;24.170;2023-05-10T10:50:10;94297.28;;;13.63;nan
23166;BME280;11751;42.700;24.170;2023-05-10T10:52:42;94306.94;;;13.76;nan
23166;BME280;11751;42.700;24.170;2023-05-10T10:55:12;94297.78;;;13.68;nan
23166;BME280;11751;42.700;24.170;2023-05-10T10:57:51;94308.09;;;13.73;nan
23166;BME280;11751;42.700;24.170;2023-05-10T11:02:46;94295.59;;;13.91;nan
23166;BME280;11751;42.700;24.170;2023-05-10T11:07:58;94286.50;;;14.00;nan
23166;BME280;11751;42.700;24.170;2023-05-10T11:10:25;94292.81;;;14.08;nan
23166;BME280;11751;42.700;24.170;2023-05-10T11:15:19;94287.31;;;13.93;nan
23166;BME280;11751;42.700;24.170;2023-05-10T11:17:44;94292.63;;;14.14;nan
23166;BME280;11751;42.700;24.170;2023-05-10T11:20:14;94291.44;;;13.92;nan
23166;BME280;11751;42.700;24.170;2023-05-10T11:22:53;94289.03;;;13.65;nan
23166;BME280;11751;42.700;24.170;2023-05-10T11:25:19;94285.59;;;13.73;nan
23166;BME280;11751;42.700;24.170;2023-05-10T11:27:47;94286.84;;;14.04;nan
23166;BME280;11751;42.700;24.170;2023-05-10T11:30:13;94292.50;;;14.04;nan
23166;BME280;11751;42.700;24.170;2023-05-10T11:32:40;94288.25;;;14.20;nan
23166;BME280;11751;42.700;24.170;2023-05-10T11:35:10;94286.16;;;13.96;nan
23166;BME280;11751;42.700;24.170;2023-05-10T11:37:37;94286.94;;;14.21;nan
23166;BME280;11751;42.700;24.170;2023-05-10T11:40:07;94283.25;;;14.11;nan
23166;BME280;11751;42.700;24.170;2023-05-10T11:42:37;94284.28;;;14.23;nan
23166;BME280;11751;42.700;24.170;2023-05-10T11:45:02;94284.56;;;14.52;nan
23166;BME280;11751;42.700;24.170;2023-05-10T11:47:28;94284.84;;;14.22;nan
23166;BME280;11751;42.700;24.170;2023-05-10T11:49:53;94271.28;;;14.28;nan
23166;BME280;11751;42.700;24.170;2023-05-10T11:52:19;94289.19;;;14.40;nan
23166;BME280;11751;42.700;24.170;2023-05-10T11:54:51;94288.19;;;14.03;nan
23166;BME280;11751;42.700;24.170;2023-05-10T11:57:18;94277.81;;;14.13;nan
23166;BME280;11751;42.700;24.170;2023-05-10T11:59:45;94277.31;;;14.24;nan
23166;BME280;11751;42.700;24.170;2023-05-10T12:02:11;94275.75;;;14.31;nan
23166;BME280;11751;42.700;24.170;2023-05-10T12:04:37;94284.06;;;14.46;nan
23166;BME280;11751;42.700;24.170;2023-05-10T12:07:03;94277.06;;;14.30;nan
23166;BME280;11751;42.700;24.170;2023-05-10T12:09:30;94274.66;;;14.26;nan
23166;BME280;11751;42.700;24.170;2023-05-10T12:11:55;94275.00;;;14.30;nan
23166;BME280;11751;42.700;24.170;2023-05-10T12:14:22;94282.19;;;13.99;nan
23166;BME280;11751;42.700;24.170;2023-05-10T12:16:49;94273.69;;;14.07;nan
23166;BME280;11751;42.700;24.170;2023-05-10T12:19:18;94274.09;;;14.03;nan
23166;BME280;11751;42.700;24.170;2023-05-10T12:21:45;94274.38;;;13.90;nan
23166;BME280;11751;42.700;24.170;2023-05-10T12:24:11;94270.28;;;14.08;nan
23166;BME280;11751;42.700;24.170;2023-05-10T12:26:36;94274.00;;;14.11;nan
23166;BME280;11751;42.700;24.170;2023-05-10T12:29:15;94264.06;;;14.34;nan
23166;BME280;11751;42.700;24.170;2023-05-10T12:31:59;94263.50;;;14.36;nan
23166;BME280;11751;42.700;24.170;2023-05-10T12:34:34;94254.28;;;14.35;nan
23166;BME280;11751;42.700;24.170;2023-05-10T12:37:02;94258.19;;;14.40;nan
23166;BME280;11751;42.700;24.170;2023-05-10T12:39:44;94255.63;;;14.85;nan
23166;BME280;11751;42.700;24.170;2023-05-10T12:42:11;94253.81;;;14.46;nan
23166;BME280;11751;42.700;24.170;2023-05-10T12:44:36;94239.88;;;14.14;nan
23166;BME280;11751;42.700;24.170;2023-05-10T12:47:02;94244.00;;;14.13;nan
23166;BME280;11751;42.700;24.170;2023-05-10T12:49:27;94238.88;;;14.19;nan
23166;BME280;11751;42.700;24.170;2023-05-10T12:51:53;94224.31;;;14.30;nan
23166;BME280;11751;42.700;24.170;2023-05-10T12:54:18;94228.09;;;14.25;nan
23166;BME280;11751;42.700;24.170;2023-05-10T12:56:44;94231.88;;;14.03;nan
23166;BME280;11751;42.700;24.170;2023-05-10T12:59:09;94222.31;;;14.23;nan
23166;BME280;11751;42.700;24.170;2023-05-10T13:01:34;94224.97;;;14.21;nan
23166;BME280;11751;42.700;24.170;2023-05-10T13:04:00;94225.63;;;14.29;nan
23166;BME280;11751;42.700;24.170;2023-05-10T13:06:25;94218.41;;;14.19;nan
23166;BME280;11751;42.700;24.170;2023-05-10T13:08:51;94214.19;;;14.27;nan
23166;BME280;11751;42.700;24.170;2023-05-10T13:11:17;94220.34;;;14.50;nan
23166;BME280;11751;42.700;24.170;2023-05-10T13:13:44;94216.19;;;14.34;nan
23166;BME280;11751;42.700;24.170;2023-05-10T13:16:10;94222.56;;;14.52;nan
23166;BME280;11751;42.700;24.170;2023-05-10T13:18:35;94215.84;;;14.47;nan
23166;BME280;11751;42.700;24.170;2023-05-10T13:21:01;94214.69;;;14.67;nan
23166;BME280;11751;42.700;24.170;2023-05-10T13:23:28;94211.88;;;14.67;nan
23166;BME280;11751;42.700;24.170;2023-05-10T13:25:54;94207.41;;;14.64;nan
23166;BME280;11751;42.700;24.170;2023-05-10T13:28:19;94203.19;;;14.39;nan
23166;BME280;11751;42.700;24.170;2023-05-10T13:30:45;94206.09;;;14.48;nan
23166;BME280;11751;42.700;24.170;2023-05-10T13:33:11;94205.44;;;14.40;nan
23166;BME280;11751;42.700;24.170;2023-05-10T13:35:36;94212.06;;;14.52;nan
23166;BME280;11751;42.700;24.170;2023-05-10T13:38:03;94204.28;;;14.43;nan
23166;BME280;11751;42.700;24.170;2023-05-10T13:40:28;94206.25;;;14.33;nan
23166;BME280;11751;42.700;24.170;2023-05-10T13:42:54;94202.00;;;14.42;nan
23166;BME280;11751;42.700;24.170;2023-05-10T13:45:20;94197.56;;;14.39;nan